This is the latest recevied weather packets stored in our database for station/object RV1CJ-14. If no packets are shown the sender has not sent any weather packets the latest 10 day(s).
| Time | Temp. | Humidity | Pressure | Rain* | Wind** | Luminosity | Snow |
|---|---|---|---|---|---|---|---|
| 1777980603 | 16.67° C | 50% | 999.8 hPa | 0 mm | - | 107 W/m² | - |
| 1777980003 | 16.67° C | 51% | 999.8 hPa | 0 mm | - | 98 W/m² | - |
| 1777979404 | 16.67° C | 50% | 999.7 hPa | 0 mm | - | 100 W/m² | - |
| 1777964403 | 12.22° C | 75% | 1000.5 hPa | 0 mm | - | 703 W/m² | - |
| 1777963803 | 11.67° C | 75% | 1000.6 hPa | 0 mm | - | 700 W/m² | - |
| 1777963203 | 12.22° C | 76% | 1000.6 hPa | 0 mm | - | 733 W/m² | - |
| 1777962603 | 11.67° C | 78% | 1000.6 hPa | 0 mm | - | 174 W/m² | - |
| 1777962003 | 11.11° C | 79% | 1000.5 hPa | 0 mm | - | 185 W/m² | - |
| 1777961403 | 11.11° C | 81% | 1000.5 hPa | 0 mm | - | 135 W/m² | - |
| 1777960803 | 10.56° C | 84% | 1000.5 hPa | 0 mm | - | 144 W/m² | - |
| 1777960203 | 10° C | 84% | 1000.5 hPa | 0 mm | - | 155 W/m² | - |
| 1777959603 | 10° C | 85% | 1000.5 hPa | 0 mm | - | 39 W/m² | - |
| 1777959004 | 10° C | 85% | 1000.4 hPa | 0 mm | - | 42 W/m² | - |
| 1777958403 | 10° C | 85% | 1000.4 hPa | 0 mm | - | 44 W/m² | - |
| 1777957803 | 10° C | 85% | 1000.3 hPa | 0 mm | - | 39 W/m² | - |
| 1777957203 | 10° C | 85% | 1000.5 hPa | 0 mm | - | 32 W/m² | - |
| 1777956603 | 9.44° C | 85% | 1000.4 hPa | 0 mm | - | 69 W/m² | - |
| 1777956003 | 9.44° C | 85% | 1000.4 hPa | 0 mm | - | 132 W/m² | - |
| 1777955403 | 9.44° C | 85% | 1000.4 hPa | 0 mm | - | 63 W/m² | - |
| 1777954803 | 9.44° C | 85% | 1000.2 hPa | 0 mm | - | 58 W/m² | - |
| 1777954203 | 9.44° C | 86% | 1000.2 hPa | 0 mm | - | 113 W/m² | - |
| 1777953603 | 8.89° C | 86% | 1000.2 hPa | 0 mm | - | 77 W/m² | - |
| 1777953003 | 8.89° C | 86% | 1000.4 hPa | 0 mm | - | 116 W/m² | - |
| 1777952403 | 8.89° C | 86% | 1000.5 hPa | 0 mm | - | 51 W/m² | - |
| 1777951803 | 8.89° C | 86% | 1000.5 hPa | 0 mm | - | 65 W/m² | - |
* Rain latest hour (hover to see other rain measurements)
** Current wind speed in m/s (hover to see current wind gust speed)